sensor_id;sensor_type;location;lat;lon;timestamp;pressure;altitude;pressure_sealevel;temperature;humidity
21449;BME280;10885;52.830;13.788;2022-12-18T05:06:21;102978.59;;;-8.03;88.30
21449;BME280;10885;52.830;13.788;2022-12-18T05:11:24;102983.94;;;-8.06;87.83
21449;BME280;10885;52.830;13.788;2022-12-18T05:16:26;102991.44;;;-8.15;87.77
21449;BME280;10885;52.830;13.788;2022-12-18T05:21:28;102992.63;;;-8.13;88.11
21449;BME280;10885;52.830;13.788;2022-12-18T05:26:31;103003.63;;;-8.17;87.52
21449;BME280;10885;52.830;13.788;2022-12-18T05:31:33;103007.81;;;-8.22;87.86
21449;BME280;10885;52.830;13.788;2022-12-18T05:36:40;103013.03;;;-8.20;87.48
21449;BME280;10885;52.830;13.788;2022-12-18T05:41:43;103008.88;;;-8.15;87.98
21449;BME280;10885;52.830;13.788;2022-12-18T05:46:45;103023.41;;;-8.13;87.21
21449;BME280;10885;52.830;13.788;2022-12-18T05:51:48;103035.44;;;-8.10;87.28
21449;BME280;10885;52.830;13.788;2022-12-18T05:56:50;103027.19;;;-8.05;87.55
21449;BME280;10885;52.830;13.788;2022-12-18T06:01:52;103040.66;;;-7.99;87.33
21449;BME280;10885;52.830;13.788;2022-12-18T06:06:55;103031.22;;;-8.06;86.68
21449;BME280;10885;52.830;13.788;2022-12-18T06:11:57;103038.31;;;-8.13;87.24
21449;BME280;10885;52.830;13.788;2022-12-18T06:17:00;103034.41;;;-8.26;87.02
21449;BME280;10885;52.830;13.788;2022-12-18T06:22:02;103042.00;;;-8.21;86.77
21449;BME280;10885;52.830;13.788;2022-12-18T06:27:04;103043.56;;;-8.21;87.05
21449;BME280;10885;52.830;13.788;2022-12-18T06:32:06;103059.28;;;-8.07;86.49
21449;BME280;10885;52.830;13.788;2022-12-18T06:37:09;103062.31;;;-8.13;86.95
21449;BME280;10885;52.830;13.788;2022-12-18T06:42:11;103076.19;;;-8.29;87.15
21449;BME280;10885;52.830;13.788;2022-12-18T06:47:13;103099.34;;;-8.34;87.32
21449;BME280;10885;52.830;13.788;2022-12-18T06:52:16;103097.63;;;-8.40;86.96
21449;BME280;10885;52.830;13.788;2022-12-18T06:57:18;103094.41;;;-8.44;87.62
21449;BME280;10885;52.830;13.788;2022-12-18T07:02:20;103097.53;;;-8.55;86.98
21449;BME280;10885;52.830;13.788;2022-12-18T07:07:23;103096.22;;;-8.63;87.67
21449;BME280;10885;52.830;13.788;2022-12-18T07:12:26;103095.53;;;-8.62;87.43
21449;BME280;10885;52.830;13.788;2022-12-18T07:17:29;103096.22;;;-8.53;86.91
21449;BME280;10885;52.830;13.788;2022-12-18T07:22:31;103102.38;;;-8.61;88.02
21449;BME280;10885;52.830;13.788;2022-12-18T07:27:33;103097.00;;;-8.48;87.06
21449;BME280;10885;52.830;13.788;2022-12-18T07:32:36;103109.19;;;-8.50;87.29
21449;BME280;10885;52.830;13.788;2022-12-18T07:37:38;103106.28;;;-8.37;86.92
21449;BME280;10885;52.830;13.788;2022-12-18T07:42:40;103117.69;;;-8.14;87.14
21449;BME280;10885;52.830;13.788;2022-12-18T07:47:42;103123.69;;;-8.28;87.36
21449;BME280;10885;52.830;13.788;2022-12-18T07:52:45;103118.22;;;-8.21;86.96
21449;BME280;10885;52.830;13.788;2022-12-18T07:57:47;103122.94;;;-8.03;86.99
21449;BME280;10885;52.830;13.788;2022-12-18T08:02:54;103130.91;;;-8.10;86.97
21449;BME280;10885;52.830;13.788;2022-12-18T08:07:58;103107.34;;;-8.02;87.24
21449;BME280;10885;52.830;13.788;2022-12-18T08:13:00;103121.50;;;-8.16;87.34
21449;BME280;10885;52.830;13.788;2022-12-18T08:18:06;103121.22;;;-8.28;86.61
21449;BME280;10885;52.830;13.788;2022-12-18T08:23:15;103113.63;;;-8.14;86.87
21449;BME280;10885;52.830;13.788;2022-12-18T08:28:17;103116.25;;;-7.89;86.44
21449;BME280;10885;52.830;13.788;2022-12-18T08:33:19;103121.50;;;-7.77;86.73
21449;BME280;10885;52.830;13.788;2022-12-18T08:38:21;103143.09;;;-7.72;86.86
21449;BME280;10885;52.830;13.788;2022-12-18T08:43:24;103126.22;;;-7.79;86.77
21449;BME280;10885;52.830;13.788;2022-12-18T08:48:45;103136.81;;;-7.70;86.46
21449;BME280;10885;52.830;13.788;2022-12-18T08:53:48;103142.97;;;-7.68;86.09
21449;BME280;10885;52.830;13.788;2022-12-18T08:58:53;103151.19;;;-7.44;86.52
21449;BME280;10885;52.830;13.788;2022-12-18T09:03:56;103158.31;;;-7.16;86.25
21449;BME280;10885;52.830;13.788;2022-12-18T09:08:58;103158.88;;;-7.23;85.19
21449;BME280;10885;52.830;13.788;2022-12-18T09:14:02;103156.34;;;-7.04;85.90
21449;BME280;10885;52.830;13.788;2022-12-18T09:19:05;103146.06;;;-6.95;85.15
21449;BME280;10885;52.830;13.788;2022-12-18T09:24:12;103172.50;;;-7.11;85.21
21449;BME280;10885;52.830;13.788;2022-12-18T09:29:15;103182.63;;;-7.15;86.49
21449;BME280;10885;52.830;13.788;2022-12-18T09:34:20;103168.16;;;-6.77;86.40
21449;BME280;10885;52.830;13.788;2022-12-18T09:39:23;103172.09;;;-7.09;86.08
21449;BME280;10885;52.830;13.788;2022-12-18T09:44:41;103168.78;;;-6.94;85.66
21449;BME280;10885;52.830;13.788;2022-12-18T09:55:33;103151.75;;;-6.46;85.40
21449;BME280;10885;52.830;13.788;2022-12-18T10:00:38;103152.38;;;-6.47;85.13
21449;BME280;10885;52.830;13.788;2022-12-18T10:10:57;103130.28;;;-6.25;84.95
21449;BME280;10885;52.830;13.788;2022-12-18T10:16:12;103128.34;;;-6.06;85.07
21449;BME280;10885;52.830;13.788;2022-12-18T10:21:20;103126.13;;;-6.30;85.21
21449;BME280;10885;52.830;13.788;2022-12-18T10:26:24;103105.41;;;-6.19;85.63
21449;BME280;10885;52.830;13.788;2022-12-18T10:31:27;103103.41;;;-6.31;85.87
21449;BME280;10885;52.830;13.788;2022-12-18T10:36:29;103091.53;;;-6.07;85.99
21449;BME280;10885;52.830;13.788;2022-12-18T10:41:31;103082.13;;;-6.14;85.87
21449;BME280;10885;52.830;13.788;2022-12-18T10:46:34;103093.28;;;-5.96;85.53
21449;BME280;10885;52.830;13.788;2022-12-18T10:51:37;103071.25;;;-5.78;85.49
21449;BME280;10885;52.830;13.788;2022-12-18T10:56:40;103079.03;;;-5.55;84.88
21449;BME280;10885;52.830;13.788;2022-12-18T11:01:56;103070.47;;;-5.67;85.22
21449;BME280;10885;52.830;13.788;2022-12-18T11:07:04;103084.50;;;-5.89;85.76
21449;BME280;10885;52.830;13.788;2022-12-18T11:17:24;103067.75;;;-5.84;85.61
21449;BME280;10885;52.830;13.788;2022-12-18T11:22:30;103071.06;;;-5.74;85.89
21449;BME280;10885;52.830;13.788;2022-12-18T11:27:33;103060.53;;;-5.83;86.57
21449;BME280;10885;52.830;13.788;2022-12-18T11:32:38;103054.72;;;-5.56;86.35
21449;BME280;10885;52.830;13.788;2022-12-18T11:37:48;103055.72;;;-5.66;85.98
21449;BME280;10885;52.830;13.788;2022-12-18T11:49:18;103080.78;;;-5.60;85.50
21449;BME280;10885;52.830;13.788;2022-12-18T11:54:13;103089.44;;;-5.58;86.16
21449;BME280;10885;52.830;13.788;2022-12-18T12:16:19;103104.41;;;-5.43;86.04
21449;BME280;10885;52.830;13.788;2022-12-18T12:21:49;103082.94;;;-5.52;86.07
21449;BME280;10885;52.830;13.788;2022-12-18T12:27:16;103095.34;;;-5.42;85.64
21449;BME280;10885;52.830;13.788;2022-12-18T12:43:28;103117.09;;;-5.26;85.53
21449;BME280;10885;52.830;13.788;2022-12-18T12:53:51;103113.66;;;-5.47;85.89
21449;BME280;10885;52.830;13.788;2022-12-18T12:58:59;103098.91;;;-5.46;86.09
21449;BME280;10885;52.830;13.788;2022-12-18T13:15:22;103087.72;;;-5.11;85.57
21449;BME280;10885;52.830;13.788;2022-12-18T13:20:33;103060.28;;;-5.27;85.87
21449;BME280;10885;52.830;13.788;2022-12-18T13:25:37;103069.91;;;-5.40;86.06
21449;BME280;10885;52.830;13.788;2022-12-18T13:30:44;103070.41;;;-5.36;86.08
21449;BME280;10885;52.830;13.788;2022-12-18T13:40:53;103082.66;;;-5.74;86.50
21449;BME280;10885;52.830;13.788;2022-12-18T13:51:07;103076.31;;;-5.72;86.37
21449;BME280;10885;52.830;13.788;2022-12-18T13:56:16;103076.31;;;-5.72;86.57
21449;BME280;10885;52.830;13.788;2022-12-18T14:01:23;103065.91;;;-5.70;85.96
21449;BME280;10885;52.830;13.788;2022-12-18T14:06:25;103065.66;;;-5.71;86.04
21449;BME280;10885;52.830;13.788;2022-12-18T14:11:29;103044.41;;;-5.79;86.44
21449;BME280;10885;52.830;13.788;2022-12-18T14:16:32;103035.38;;;-5.94;86.08
21449;BME280;10885;52.830;13.788;2022-12-18T14:21:37;103035.09;;;-6.01;86.59
21449;BME280;10885;52.830;13.788;2022-12-18T14:26:41;103027.75;;;-6.05;86.42
21449;BME280;10885;52.830;13.788;2022-12-18T14:31:43;103025.28;;;-6.05;86.26
21449;BME280;10885;52.830;13.788;2022-12-18T14:36:52;103024.88;;;-6.03;86.78
21449;BME280;10885;52.830;13.788;2022-12-18T14:41:57;103022.78;;;-6.05;86.92
21449;BME280;10885;52.830;13.788;2022-12-18T14:46:59;102997.59;;;-6.07;86.59
21449;BME280;10885;52.830;13.788;2022-12-18T14:52:06;102992.16;;;-6.04;86.33
21449;BME280;10885;52.830;13.788;2022-12-18T14:57:23;102989.41;;;-6.21;86.72
21449;BME280;10885;52.830;13.788;2022-12-18T15:02:27;102983.44;;;-6.12;86.67
21449;BME280;10885;52.830;13.788;2022-12-18T15:13:07;102999.72;;;-5.98;87.08
21449;BME280;10885;52.830;13.788;2022-12-18T15:28:26;103039.94;;;-6.12;87.36
21449;BME280;10885;52.830;13.788;2022-12-18T15:33:32;103036.13;;;-6.10;87.43
21449;BME280;10885;52.830;13.788;2022-12-18T15:38:35;103030.88;;;-6.12;87.53
21449;BME280;10885;52.830;13.788;2022-12-18T15:43:37;103028.94;;;-6.03;87.72
21449;BME280;10885;52.830;13.788;2022-12-18T15:53:51;103014.22;;;-6.17;87.19
21449;BME280;10885;52.830;13.788;2022-12-18T15:58:54;103016.72;;;-6.17;88.00
21449;BME280;10885;52.830;13.788;2022-12-18T16:03:56;103014.38;;;-6.21;87.93
21449;BME280;10885;52.830;13.788;2022-12-18T16:08:59;103013.72;;;-6.20;87.49
21449;BME280;10885;52.830;13.788;2022-12-18T16:14:01;103002.25;;;-6.14;87.94
21449;BME280;10885;52.830;13.788;2022-12-18T16:19:04;103002.50;;;-6.12;87.57
21449;BME280;10885;52.830;13.788;2022-12-18T16:24:15;102992.72;;;-6.11;88.11
21449;BME280;10885;52.830;13.788;2022-12-18T16:29:19;102993.88;;;-6.09;87.78
21449;BME280;10885;52.830;13.788;2022-12-18T16:34:31;103001.25;;;-6.05;87.39
21449;BME280;10885;52.830;13.788;2022-12-18T16:39:38;102993.50;;;-6.06;87.46
21449;BME280;10885;52.830;13.788;2022-12-18T16:44:41;102996.91;;;-6.06;87.40
21449;BME280;10885;52.830;13.788;2022-12-18T16:49:43;102983.44;;;-6.12;87.20
21449;BME280;10885;52.830;13.788;2022-12-18T16:54:52;102983.69;;;-6.10;87.42
21449;BME280;10885;52.830;13.788;2022-12-18T16:59:55;102998.41;;;-6.12;87.38
21449;BME280;10885;52.830;13.788;2022-12-18T17:05:06;102994.75;;;-6.14;87.22
21449;BME280;10885;52.830;13.788;2022-12-18T17:10:08;102996.34;;;-6.14;86.88
21449;BME280;10885;52.830;13.788;2022-12-18T17:15:11;103002.72;;;-6.11;87.72
21449;BME280;10885;52.830;13.788;2022-12-18T17:20:13;103005.16;;;-6.16;86.97
21449;BME280;10885;52.830;13.788;2022-12-18T17:25:16;102992.00;;;-6.15;86.87
21449;BME280;10885;52.830;13.788;2022-12-18T17:30:18;102994.06;;;-6.13;87.39
21449;BME280;10885;52.830;13.788;2022-12-18T17:35:20;103001.16;;;-6.10;86.96
21449;BME280;10885;52.830;13.788;2022-12-18T17:40:22;103013.94;;;-6.03;86.85
21449;BME280;10885;52.830;13.788;2022-12-18T17:45:25;103005.53;;;-6.04;86.56
21449;BME280;10885;52.830;13.788;2022-12-18T17:50:27;103007.63;;;-6.01;86.66
21449;BME280;10885;52.830;13.788;2022-12-18T17:55:33;102994.41;;;-6.06;86.97
21449;BME280;10885;52.830;13.788;2022-12-18T18:00:38;102996.63;;;-6.07;87.40
21449;BME280;10885;52.830;13.788;2022-12-18T18:05:40;102989.41;;;-6.06;87.16
21449;BME280;10885;52.830;13.788;2022-12-18T18:10:42;102986.72;;;-6.02;86.58
21449;BME280;10885;52.830;13.788;2022-12-18T18:15:54;102977.09;;;-6.10;86.50
21449;BME280;10885;52.830;13.788;2022-12-18T18:20:57;102967.47;;;-6.18;86.54
21449;BME280;10885;52.830;13.788;2022-12-18T18:26:04;102960.78;;;-5.87;87.13
21449;BME280;10885;52.830;13.788;2022-12-18T18:31:08;102948.72;;;-6.10;86.89
21449;BME280;10885;52.830;13.788;2022-12-18T18:36:11;102936.91;;;-6.27;86.63
21449;BME280;10885;52.830;13.788;2022-12-18T18:41:14;102938.13;;;-6.40;86.70
21449;BME280;10885;52.830;13.788;2022-12-18T18:46:16;102917.16;;;-6.46;87.58
21449;BME280;10885;52.830;13.788;2022-12-18T18:51:21;102911.38;;;-6.56;87.06
21449;BME280;10885;52.830;13.788;2022-12-18T18:56:24;102901.03;;;-6.64;87.00
21449;BME280;10885;52.830;13.788;2022-12-18T19:01:49;102900.78;;;-6.65;87.00
21449;BME280;10885;52.830;13.788;2022-12-18T19:06:53;102889.47;;;-6.63;87.36
21449;BME280;10885;52.830;13.788;2022-12-18T19:11:56;102890.81;;;-6.65;86.75
21449;BME280;10885;52.830;13.788;2022-12-18T19:17:17;102882.06;;;-6.73;86.38
21449;BME280;10885;52.830;13.788;2022-12-18T19:22:20;102888.41;;;-6.75;87.03
21449;BME280;10885;52.830;13.788;2022-12-18T19:27:22;102885.44;;;-6.78;86.92
21449;BME280;10885;52.830;13.788;2022-12-18T19:32:25;102882.00;;;-6.78;86.97
21449;BME280;10885;52.830;13.788;2022-12-18T19:37:27;102873.44;;;-6.75;87.07
21449;BME280;10885;52.830;13.788;2022-12-18T19:42:30;102873.13;;;-6.82;87.01
21449;BME280;10885;52.830;13.788;2022-12-18T19:47:36;102848.75;;;-6.89;86.85
21449;BME280;10885;52.830;13.788;2022-12-18T19:52:38;102846.69;;;-6.91;86.51
21449;BME280;10885;52.830;13.788;2022-12-18T19:57:41;102840.28;;;-6.95;86.83
21449;BME280;10885;52.830;13.788;2022-12-18T20:02:43;102847.28;;;-6.98;87.03
21449;BME280;10885;52.830;13.788;2022-12-18T20:07:45;102839.81;;;-6.98;86.53
21449;BME280;10885;52.830;13.788;2022-12-18T20:12:48;102819.84;;;-6.98;86.40
21449;BME280;10885;52.830;13.788;2022-12-18T20:17:50;102813.28;;;-6.97;87.14
21449;BME280;10885;52.830;13.788;2022-12-18T20:22:53;102809.47;;;-6.95;86.74
21449;BME280;10885;52.830;13.788;2022-12-18T20:27:56;102820.84;;;-6.92;86.47
21449;BME280;10885;52.830;13.788;2022-12-18T20:32:58;102826.75;;;-6.91;86.36
21449;BME280;10885;52.830;13.788;2022-12-18T20:38:00;102827.00;;;-6.90;86.49
21449;BME280;10885;52.830;13.788;2022-12-18T20:43:04;102829.75;;;-6.88;86.57
21449;BME280;10885;52.830;13.788;2022-12-18T20:48:08;102821.06;;;-6.90;86.17
21449;BME280;10885;52.830;13.788;2022-12-18T20:53:10;102810.88;;;-6.92;86.11
21449;BME280;10885;52.830;13.788;2022-12-18T20:58:12;102813.59;;;-6.90;85.79
21449;BME280;10885;52.830;13.788;2022-12-18T21:03:14;102807.31;;;-6.88;86.15
21449;BME280;10885;52.830;13.788;2022-12-18T21:08:17;102800.72;;;-6.88;86.05
21449;BME280;10885;52.830;13.788;2022-12-18T21:13:22;102809.53;;;-6.90;86.27
21449;BME280;10885;52.830;13.788;2022-12-18T21:18:24;102796.13;;;-6.90;nan
21449;BME280;10885;52.830;13.788;2022-12-18T21:23:26;102789.59;;;-6.90;86.06
21449;BME280;10885;52.830;13.788;2022-12-18T21:28:29;102788.91;;;-6.89;86.05
21449;BME280;10885;52.830;13.788;2022-12-18T21:33:34;102779.19;;;-6.87;85.20
21449;BME280;10885;52.830;13.788;2022-12-18T21:38:37;102778.28;;;-6.88;86.05
21449;BME280;10885;52.830;13.788;2022-12-18T21:43:39;102783.53;;;-6.86;85.41
21449;BME280;10885;52.830;13.788;2022-12-18T21:49:00;102765.38;;;-6.85;85.88
21449;BME280;10885;52.830;13.788;2022-12-18T21:54:03;102773.78;;;-6.85;85.22
21449;BME280;10885;52.830;13.788;2022-12-18T21:59:05;102776.53;;;-6.83;85.48
21449;BME280;10885;52.830;13.788;2022-12-18T22:04:08;102763.88;;;-6.79;85.66
21449;BME280;10885;52.830;13.788;2022-12-18T22:09:13;102768.59;;;-6.81;85.05
21449;BME280;10885;52.830;13.788;2022-12-18T22:14:20;102744.81;;;-6.78;85.54
21449;BME280;10885;52.830;13.788;2022-12-18T22:19:23;102740.34;;;-6.75;85.41
21449;BME280;10885;52.830;13.788;2022-12-18T22:24:28;102744.25;;;-6.72;85.38
21449;BME280;10885;52.830;13.788;2022-12-18T22:29:30;102748.81;;;-6.69;85.51
21449;BME280;10885;52.830;13.788;2022-12-18T22:34:51;102735.19;;;-6.71;85.35
21449;BME280;10885;52.830;13.788;2022-12-18T22:39:53;102724.53;;;-6.70;85.27
21449;BME280;10885;52.830;13.788;2022-12-18T22:44:55;102727.03;;;-6.70;84.97
21449;BME280;10885;52.830;13.788;2022-12-18T22:49:57;102715.72;;;-6.68;84.88
21449;BME280;10885;52.830;13.788;2022-12-18T22:55:00;102700.75;;;-6.68;85.49
21449;BME280;10885;52.830;13.788;2022-12-18T23:00:03;102677.63;;;-6.67;84.66
21449;BME280;10885;52.830;13.788;2022-12-18T23:05:06;102677.19;;;-6.65;85.14
21449;BME280;10885;52.830;13.788;2022-12-18T23:10:08;102672.44;;;-6.63;85.41
21449;BME280;10885;52.830;13.788;2022-12-18T23:15:10;102647.03;;;-6.66;85.50
21449;BME280;10885;52.830;13.788;2022-12-18T23:20:14;102640.47;;;-6.66;85.02
